• Join FlightAware (Why Join?)
  • Login
  • US Flag 
03:06PM EST


 

Airport Tracker/Info


-or-


 

Live Flight TrackerFlight Track Log ✈ AWE93 ✈ 23-Jun-2013 ✈ KBOS - KPHX

Flight Track Log - Related Links

Times and Time Zones

All times are in EDT time to prevent confusion due to time zone crossing. See the AWE93 flight status page for this flight to view local times or setup timezone preferences in your user account.

Time Position Orientation Groundspeed Altitude Reporting Facility
EDT Latitude Longitude Course Direction KTS MPH feet Rate Location/Type
07:42PM 42.3500 -71.0167 304° West 153 176 500  Level KA90
07:43PM 42.3333 -71.0000 144° Southeast 163 188 2,100 1,500 Climbing KA90
07:44PM 42.3167 -70.9167 105° East 267 307 3,200 2,031 Climbing KA90
07:45PM 42.3344 -70.8056 78° East 311 358 6,500 2,400 Climbing Boston Center
07:46PM 42.6603 -70.9979 300° West  Level FlightAware Approximate
07:46PM 42.3814 -70.7369 47° Northeast 248 285 8,400  Level Boston Center
07:47PM 42.7194 -71.1387 304° West  Level FlightAware Approximate
07:47PM 42.4622 -70.7150 11° North 253 291 10,900  Level Boston Center
07:48PM 42.5383 -70.7719 331° Northwest 250 288 12,400 1,350 Climbing Boston Center
07:49PM 42.5833 -70.8694 302° West 276 318 13,600 1,500 Climbing Boston Center
07:50PM 42.6414 -70.9978 302° West 344 396 15,400 1,700 Climbing Boston Center
07:51PM 42.6553 -71.1217 279° West 364 419 17,000 1,600 Climbing Boston Center
07:52PM 42.6758 -71.2767 280° West 380 437 18,600 1,350 Climbing Boston Center
07:53PM 42.6961 -71.4258 281° West 387 445 19,700 1,350 Climbing Boston Center
07:54PM 42.7097 -71.5556 278° West 398 458 21,300 1,250 Climbing Boston Center
07:55PM 42.7294 -71.7081 280° West 398 458 22,200 955 Climbing Boston Center
07:56PM 42.7469 -71.8606 279° West 404 465 23,400 1,045 Climbing Boston Center
07:57PM 42.7667 -72.0497 278° West 409 471 24,500 1,000 Climbing Boston Center
07:58PM 42.7858 -72.2053 280° West 415 478 25,400 850 Climbing Boston Center
07:59PM 42.8089 -72.3836 280° West 426 490 26,200 700 Climbing Boston Center
08:00PM 42.8275 -72.5506 279° West 439 505 26,800 850 Climbing Boston Center
08:01PM 42.8419 -72.7119 277° West 445 512 27,900 950 Climbing Boston Center
08:02PM 42.8603 -72.8764 279° West 445 512 28,700 800 Climbing Boston Center
08:03PM 42.8781 -73.0378 279° West 462 532 29,500 750 Climbing Boston Center
08:04PM 42.8939 -73.2025 278° West 462 532 30,200 750 Climbing Boston Center
08:05PM 42.9072 -73.3839 276° West 455 524 31,000 850 Climbing Boston Center
08:06PM 42.9244 -73.5517 278° West 450 518 31,900 450 Climbing Boston Center
08:07PM 42.9433 -73.7164 279° West 445 512 31,900 50 Level Boston Center
08:08PM 42.9603 -73.8814 278° West 445 512 32,000  Climbing Boston Center
08:09PM 42.9747 -74.0433 277° West 445 512 31,900 -50 Descending Boston Center
08:10PM 42.9889 -74.2083 277° West 445 512 31,900 50 Level Boston Center
08:11PM 43.0050 -74.3736 278° West 445 512 32,000 50 Climbing Boston Center
08:12PM 43.0189 -74.5358 277° West 445 512 32,000  Level Boston Center
08:13PM 43.0344 -74.7069 277° West 445 512 32,000  Level Boston Center
08:14PM 43.0497 -74.8694 277° West 445 512 32,000 -45 Level Boston Center
08:15PM 43.0647 -75.0378 277° West 445 512 31,900  Descending Boston Center
08:16PM 43.0792 -75.2203 276° West 445 512 32,000 50 Climbing Boston Center
08:17PM 43.0936 -75.3944 277° West 451 519 32,000  Level Boston Center
08:18PM 43.1081 -75.5631 277° West 451 519 32,000 -29 Level Boston Center
08:21PM 43.1428 -75.9989 276° West 444 511 31,900  Descending Cleveland Center
08:22PM 43.1575 -76.1686 277° West 455 524 32,000 50 Climbing Cleveland Center
08:23PM 43.1494 -76.3428 266° West 455 524 32,000  Level Cleveland Center
08:24PM 43.1347 -76.5117 263° West 460 529 32,000  Level Cleveland Center
08:25PM 43.1197 -76.6806 263° West 460 529 32,000  Level Cleveland Center
08:26PM 43.1058 -76.8322 263° West 460 529 32,000  Level Cleveland Center
08:27PM 43.0903 -76.9981 263° West 454 522 32,000  Level Cleveland Center
08:28PM 43.0747 -77.1667 263° West 449 517 32,000  Level Cleveland Center
08:29PM 43.0569 -77.3525 263° West 455 524 32,000 250 Level Cleveland Center
08:30PM 43.0367 -77.5183 261° West 455 524 32,500 600 Climbing Cleveland Center
08:31PM 43.0139 -77.6869 260° West 455 524 33,200 700 Climbing Cleveland Center
08:32PM 42.9908 -77.8528 259° West 450 518 33,900 400 Climbing Cleveland Center
08:33PM 42.9694 -78.0211 260° West 450 518 34,000 50 Climbing Cleveland Center
08:34PM 42.9461 -78.1894 259° West 450 518 34,000  Level Cleveland Center
08:35PM 42.9267 -78.3631 261° West 456 525 34,000  Level Cleveland Center
08:36PM 42.9028 -78.5339 259° West 456 525 34,000  Level Cleveland Center
08:37PM 42.8828 -78.7047 261° West 461 531 34,000  Level Cleveland Center
08:38PM 42.8603 -78.8781 260° West 466 536 34,000 50 Level Cleveland Center
08:39PM 42.8397 -79.0514 261° West 466 536 34,100  Climbing Cleveland Center
08:40PM 42.8128 -79.2247 258° West 466 536 34,000 -50 Descending Cleveland Center
08:41PM 42.7917 -79.3950 260° West 466 536 34,000  Level Cleveland Center
08:42PM 42.7683 -79.5650 259° West 466 536 34,000  Level Cleveland Center
08:43PM 42.7447 -79.7378 260° West 471 542 34,000  Level Cleveland Center
08:44PM 42.7189 -79.9133 259° West 471 542 34,000  Level Cleveland Center
08:45PM 42.6944 -80.0664 258° West 471 542 34,000  Level Cleveland Center
08:46PM 42.6681 -80.2331 258° West 471 542 34,000  Level Cleveland Center
08:47PM 42.6436 -80.4111 259° West 471 542 34,000  Level Cleveland Center
08:48PM 42.6186 -80.5831 259° West 466 536 34,000  Level Cleveland Center
08:49PM 42.5956 -80.7581 260° West 476 548 34,000  Level Cleveland Center
08:50PM 42.5681 -80.9242 257° West 471 542 34,000  Level Cleveland Center
08:51PM 42.5425 -81.0989 259° West 471 542 34,000  Level Cleveland Center
08:52PM 42.5122 -81.2931 258° West 471 542 34,000  Level Cleveland Center
08:53PM 42.4839 -81.4672 258° West 471 542 34,000  Level Cleveland Center
08:54PM 42.4575 -81.6386 258° West 471 542 34,000  Level Cleveland Center
08:55PM 42.4286 -81.8125 257° West 471 542 34,000  Level Cleveland Center
08:56PM 42.4017 -81.9864 258° West 472 543 34,000  Level Cleveland Center
08:57PM 42.3789 -82.1264 258° West 472 543 34,000  Level Cleveland Center
08:58PM 42.3472 -82.3136 257° West 472 543 34,000  Level Cleveland Center
08:59PM 42.3172 -82.4869 257° West 472 543 34,000  Level Cleveland Center
09:00PM 42.2892 -82.6603 258° West 472 543 34,000  Level Cleveland Center
09:01PM 42.2611 -82.8306 258° West 472 543 34,000  Level Cleveland Center
09:02PM 42.2306 -83.0033 257° West 472 543 34,000  Level Cleveland Center
09:03PM 42.1994 -83.1758 256° West 472 543 34,000  Level Cleveland Center
09:04PM 42.1725 -83.3542 259° West 489 563 34,000  Level Cleveland Center
09:05PM 42.1411 -83.5264 256° West 484 557 34,000  Level Cleveland Center
09:06PM 42.1047 -83.7150 255° West 484 557 34,000  Level Cleveland Center
09:07PM 42.0750 -83.8900 257° West 484 557 34,000  Level Cleveland Center
09:08PM 42.0333 -84.1358 257° West 471 542 34,000  Level Chicago Center
09:10PM 42.0019 -84.3056 256° West 469 540 34,000  Level Chicago Center
09:11PM 41.9703 -84.4761 256° West 470 541 34,000  Level Chicago Center
09:12PM 41.9339 -84.6725 256° West 468 539 34,000  Level Chicago Center
09:13PM 41.9022 -84.8400 256° West 466 536 34,000  Level Chicago Center
09:14PM 41.8714 -85.0067 256° West 464 534 34,000  Level Chicago Center
09:15PM 41.8400 -85.1731 256° West 464 534 34,000  Level Chicago Center
09:16PM 41.8028 -85.3711 256° West 465 535 34,000  Level Chicago Center
09:17PM 41.7700 -85.5342 255° West 466 536 34,000  Level Chicago Center
09:18PM 41.7367 -85.6956 255° West 460 529 34,000  Level Chicago Center
09:19PM 41.7042 -85.8586 255° West 457 526 34,000  Level Chicago Center
09:20PM 41.6717 -86.0231 255° West 463 533 34,000  Level Chicago Center
09:21PM 41.6319 -86.2208 255° West 463 533 34,000 49 Level Chicago Center
09:22PM 41.5969 -86.3847 254° West 462 532 34,100 -48 Climbing Chicago Center
09:23PM 41.5636 -86.5492 255° West 461 531 33,900  Descending Chicago Center
09:24PM 41.5275 -86.7244 255° West 459 528 34,100 97 Climbing Chicago Center
09:25PM 41.4942 -86.8847 255° West 452 520 34,100 -48 Level Chicago Center
09:26PM 41.4603 -87.0422 254° West 445 512 34,000 -48 Descending Chicago Center
09:27PM 41.4278 -87.2019 255° West 448 516 34,000  Level Chicago Center
09:28PM 41.3939 -87.3608 254° West 449 517 34,000  Level Chicago Center
09:29PM 41.3542 -87.5489 254° West 444 511 34,000  Level Chicago Center
09:30PM 41.3203 -87.7064 254° West 443 510 34,000  Level Chicago Center
09:31PM 41.2858 -87.8617 254° West 438 504 34,000  Level Chicago Center
09:32PM 41.2492 -88.0181 253° West 442 509 34,000  Level Chicago Center
09:33PM 41.2150 -88.1767 254° West 441 507 34,000  Level Chicago Center
09:34PM 41.1817 -88.3339 254° West 440 506 34,000  Level Chicago Center
09:35PM 41.1467 -88.4894 253° West 442 509 34,000  Level Chicago Center
09:36PM 41.1036 -88.6744 253° West 439 505 34,000  Level Chicago Center
09:37PM 41.0692 -88.8272 253° West 436 502 34,000  Level Chicago Center
09:38PM 41.0361 -88.9825 254° West 440 506 34,000  Level Chicago Center
09:39PM 41.0000 -89.1350 253° West 436 502 34,000  Level Chicago Center
09:40PM 40.9597 -89.3069 253° West 435 501 34,000  Level Chicago Center
09:41PM 40.9247 -89.4583 253° West 432 497 34,000  Level Chicago Center
09:43PM 40.8861 -89.6206 253° West 432 497 34,000  Level Chicago Center
09:44PM 40.8522 -89.7703 253° West 430 495 34,000  Level Chicago Center
09:45PM 40.8172 -89.9233 253° West 434 499 34,000  Level Chicago Center
09:46PM 40.7792 -90.0717 251° West 428 493 34,000  Level Chicago Center
09:47PM 40.7422 -90.2214 252° West 427 491 34,000  Level Chicago Center
09:48PM 40.7019 -90.3856 252° West 432 497 34,000  Level Chicago Center
09:49PM 40.6647 -90.5375 252° West 434 499 34,000  Level Chicago Center
09:50PM 40.6253 -90.6917 251° West 444 511 34,000  Level Chicago Center
09:51PM 40.5872 -90.8442 252° West 442 509 34,000  Level Chicago Center
09:52PM 40.5417 -91.0283 252° West 441 507 34,000  Level Chicago Center
09:53PM 40.5033 -91.1789 252° West 437 503 34,000  Level Chicago Center
09:54PM 40.4692 -91.3136 252° West 435 501 34,000  Level Chicago Center
09:55PM 40.4250 -91.4881 252° West 425 489 34,000  Level Chicago Center
09:56PM 40.3869 -91.6350 251° West 428 493 34,000  Level Chicago Center
09:57PM 40.3489 -91.7800 251° West 424 488 34,000  Level Chicago Center
09:58PM 40.3108 -91.9272 251° West 428 493 34,000  Level Chicago Center
09:59PM 40.2722 -92.0742 251° West 428 493 34,000  Level Chicago Center
10:00PM 40.2336 -92.2217 251° West 430 495 34,000  Level Chicago Center
10:01PM 40.1864 -92.3992 251° West 430 495 34,000  Level Chicago Center
10:02PM 40.1444 -92.5483 250° West 430 495 34,000  Level Chicago Center
10:03PM 40.1106 -92.7006 254° West 432 497 34,000 49 Level Chicago Center
10:04PM 40.0797 -92.8478 255° West 423 487 34,100  Climbing Chicago Center
10:05PM 40.0483 -92.9928 254° West 417 480 34,000 -46 Descending Chicago Center
10:06PM 40.0108 -93.1628 254° West 413 475 34,000  Level Kansas City Center
10:07PM 39.9789 -93.3056 254° West 413 475 34,000  Level Kansas City Center
10:08PM 39.9450 -93.4542 253° West 426 490 34,000  Level Kansas City Center
10:09PM 39.9125 -93.5994 254° West 424 488 34,000  Level Kansas City Center
10:10PM 39.8808 -93.7436 254° West 419 482 34,000  Level Kansas City Center
10:11PM 39.8483 -93.8889 254° West 421 484 34,000  Level Kansas City Center
10:12PM 39.8156 -94.0336 254° West 421 484 34,000  Level Kansas City Center
10:13PM 39.7775 -94.2003 254° West 421 484 34,000  Level Kansas City Center
10:14PM 39.7450 -94.3406 253° West 422 486 34,000  Level Kansas City Center
10:16PM 39.7067 -94.5044 253° West 426 490 34,000  Level Kansas City Center
10:17PM 39.6733 -94.6453 253° West 426 490 34,000  Level Kansas City Center
10:18PM 39.6344 -94.8106 253° West 430 495 34,000  Level Kansas City Center
10:19PM 39.6011 -94.9519 253° West 429 494 34,000  Level Kansas City Center
10:20PM 39.5675 -95.0936 253° West 433 498 34,000  Level Kansas City Center
10:21PM 39.5244 -95.2692 252° West 432 497 34,000  Level Kansas City Center
10:22PM 39.4894 -95.4158 253° West 430 495 34,000  Level Kansas City Center
10:23PM 39.4536 -95.5628 253° West 435 501 34,000  Level Kansas City Center
10:24PM 39.4175 -95.7050 252° West 438 504 34,000  Level Kansas City Center
10:25PM 39.3761 -95.8703 252° West 435 501 34,000  Level Kansas City Center
10:26PM 39.3397 -96.0125 252° West 436 502 34,000  Level Kansas City Center
10:27PM 39.3044 -96.1544 252° West 443 510 34,000  Level Kansas City Center
10:28PM 39.2606 -96.3256 252° West 442 509 34,000  Level Kansas City Center
10:29PM 39.2250 -96.4697 252° West 441 507 34,000  Level Kansas City Center
10:30PM 39.1811 -96.6375 251° West 443 510 34,000  Level Kansas City Center
10:31PM 39.1447 -96.7822 252° West 443 510 34,000  Level Kansas City Center
10:32PM 39.1072 -96.9244 251° West 441 507 34,000  Level Kansas City Center
10:33PM 39.0636 -97.0922 252° West 441 507 34,000  Level Kansas City Center
10:34PM 39.0272 -97.2375 252° West 446 513 34,000  Level Kansas City Center
10:35PM 38.9900 -97.3792 251° West 440 506 34,000  Level Kansas City Center
10:36PM 38.9447 -97.5444 251° West 440 506 34,000  Level Kansas City Center
10:37PM 38.9053 -97.6847 250° West 438 504 34,000  Level Kansas City Center
10:38PM 38.8625 -97.8250 249° West 440 506 34,000  Level Kansas City Center
10:39PM 38.8183 -97.9697 249° West 443 510 34,000  Level Kansas City Center
10:40PM 38.7633 -98.1439 248° West 443 510 34,000  Level Kansas City Center
10:41PM 38.7186 -98.2875 248° West 439 505 34,000  Level Kansas City Center
10:42PM 38.6733 -98.4322 248° West 439 505 34,000  Level Kansas City Center
10:43PM 38.6281 -98.5767 248° West 440 506 34,000  Level Kansas City Center
10:44PM 38.5822 -98.7217 248° West 441 507 34,000  Level Kansas City Center
10:45PM 38.5361 -98.8653 248° West 439 505 34,000  Level Kansas City Center
10:46PM 38.4903 -99.0083 248° West 438 504 34,000  Level Kansas City Center
10:47PM 38.4444 -99.1506 248° West 436 502 34,000  Level Kansas City Center
10:48PM 38.4075 -99.2958 252° West 434 499 34,000  Level Kansas City Center
10:49PM 38.3639 -99.4717 252° West 434 499 34,000  Level Kansas City Center
10:50PM 38.3267 -99.6147 252° West 435 501 34,000  Level Kansas City Center
10:51PM 38.3103 -99.7619 262° West 435 501 34,000  Level Kansas City Center
10:52PM 38.2928 -99.9325 263° West 435 501 34,000  Level Kansas City Center
10:53PM 38.2764 -100.0753 262° West 431 496 34,000  Level Kansas City Center
10:54PM 38.2625 -100.2169 263° West 426 490 34,000  Level Kansas City Center
10:55PM 38.2447 -100.3853 262° West 429 494 34,000  Level Kansas City Center
10:56PM 38.2308 -100.5256 263° West 423 487 34,000  Level Kansas City Center
10:57PM 38.2156 -100.6889 263° West 421 484 34,000  Level Kansas City Center
10:58PM 38.2044 -100.8261 264° West 413 475 34,000  Level Kansas City Center
10:59PM 38.1944 -100.9639 265° West 411 473 34,000  Level Kansas City Center
11:00PM 38.1822 -101.1278 265° West 422 486 34,000 48 Level Denver Center
11:01PM 38.1683 -101.2922 264° West 420 483 34,100  Climbing Denver Center
11:02PM 38.1456 -101.4289 258° West 416 479 34,000 -51 Descending Denver Center
11:03PM 38.1042 -101.5614 248° West 418 481 34,000  Level Kansas City Center
11:04PM 38.0619 -101.6919 248° West 419 482 34,000  Level Kansas City Center
11:05PM 38.0136 -101.8464 248° West 421 484 34,000  Level Kansas City Center
11:06PM 37.9700 -101.9792 247° West 426 490 34,000  Level Kansas City Center
11:07PM 37.9200 -102.1364 248° West 431 496 34,000  Level Kansas City Center
11:08PM 37.8761 -102.2706 248° West 432 497 34,000  Level Kansas City Center
11:10PM 37.8325 -102.4053 248° West 433 498 34,000  Level Kansas City Center
11:11PM 37.7803 -102.5628 247° West 434 499 34,000  Level Kansas City Center
11:12PM 37.7361 -102.6964 247° West 432 497 34,000  Level Kansas City Center
11:13PM 37.6922 -102.8292 247° West 429 494 34,000  Level Kansas City Center
11:14PM 37.6400 -102.9844 247° West 431 496 34,000  Level Kansas City Center
11:15PM 37.5961 -103.1181 248° West 431 496 34,000  Level Kansas City Center
11:16PM 37.5464 -103.2667 247° West 432 497 34,000  Level Albuquerque Center
11:17PM 37.5014 -103.4019 247° West 435 501 34,000  Level Albuquerque Center
11:18PM 37.4483 -103.5575 247° West 433 498 34,000  Level Albuquerque Center
11:19PM 37.4031 -103.6919 247° West 432 497 34,000  Level Albuquerque Center
11:20PM 37.3506 -103.8425 246° West 432 497 34,000  Level Albuquerque Center
11:21PM 37.3039 -103.9800 247° West 428 493 34,000  Level Albuquerque Center
11:22PM 37.2569 -104.1158 247° West 422 486 34,000  Level Albuquerque Center
11:23PM 37.2081 -104.2575 247° West 412 474 34,000  Level Albuquerque Center
11:24PM 37.1633 -104.3858 246° West 415 478 34,000  Level Albuquerque Center
11:25PM 37.1194 -104.5133 247° West 415 478 34,000  Level Albuquerque Center
11:26PM 37.0667 -104.6597 246° West 415 478 34,000  Level Albuquerque Center
11:27PM 37.0144 -104.8081 246° West 413 475 34,000  Level Denver Center
11:28PM 36.9644 -104.9492 246° West 410 472 34,000  Level Denver Center
11:29PM 36.9175 -105.0758 245° Southwest 404 465 34,000  Level Denver Center
11:30PM 36.8681 -105.2203 247° West 406 467 34,000  Level Denver Center
11:31PM 36.8300 -105.3219 245° Southwest 409 471 34,000  Level Albuquerque Center
11:32PM 36.7861 -105.4461 246° West 410 472 34,000  Level Albuquerque Center
11:33PM 36.7397 -105.5856 247° West 412 474 34,000  Level Albuquerque Center
11:34PM 36.7008 -105.6975 247° West 407 468 34,000  Level Albuquerque Center
11:35PM 36.6389 -105.8472 243° Southwest 405 466 34,000  Level Albuquerque Center
11:36PM 36.5939 -105.9725 246° West 409 471 34,000  Level Albuquerque Center
11:37PM 36.5406 -106.1139 245° Southwest 405 466 34,000  Level Albuquerque Center
11:38PM 36.4839 -106.2347 240° Southwest 417 480 34,000  Level Albuquerque Center
11:39PM 36.4269 -106.3539 239° Southwest 419 482 34,000  Level Albuquerque Center
11:40PM 36.3633 -106.4917 240° Southwest 415 478 34,000  Level Albuquerque Center
11:41PM 36.3083 -106.6106 240° Southwest 414 476 34,000  Level Albuquerque Center
11:42PM 36.2431 -106.7467 239° Southwest 412 474 34,000  Level Albuquerque Center
11:43PM 36.1878 -106.8653 240° Southwest 414 476 34,000  Level Albuquerque Center
11:44PM 36.1275 -106.9928 240° Southwest 415 478 34,000  Level Albuquerque Center
11:45PM 36.0697 -107.1128 239° Southwest 411 473 34,000  Level Albuquerque Center
11:46PM 36.0114 -107.2350 239° Southwest 409 471 34,000  Level Albuquerque Center
11:47PM 35.9472 -107.3708 240° Southwest 409 471 34,000  Level Albuquerque Center
11:48PM 35.8903 -107.4886 239° Southwest 413 475 34,000  Level Albuquerque Center
11:49PM 35.8336 -107.6064 239° Southwest 417 480 34,000  Level Albuquerque Center
11:50PM 35.7672 -107.7436 239° Southwest 417 480 34,000  Level Albuquerque Center
11:51PM 35.7103 -107.8608 239° Southwest 416 479 34,000  Level Albuquerque Center
11:52PM 35.6525 -107.9786 239° Southwest 417 480 34,000  Level Albuquerque Center
11:54PM 35.5853 -108.1161 239° Southwest 419 482 34,000  Level Albuquerque Center
11:55PM 35.5275 -108.2336 239° Southwest 419 482 34,000  Level Albuquerque Center
11:56PM 35.4692 -108.3511 239° Southwest 420 483 34,000  Level Albuquerque Center
11:57PM 35.3994 -108.4906 239° Southwest 423 487 34,000  Level Albuquerque Center
11:58PM 35.3419 -108.6075 239° Southwest 420 483 34,000  Level Albuquerque Center
11:59PM 35.2739 -108.7431 238° Southwest 418 481 34,000  Level Albuquerque Center
12:00AM 35.2158 -108.8597 239° Southwest 416 479 34,000  Level Albuquerque Center
12:01AM 35.1575 -108.9761 239° Southwest 417 480 34,000  Level Albuquerque Center
12:02AM 35.0900 -109.1106 238° Southwest 416 479 34,000  Level Albuquerque Center
12:03AM 35.0331 -109.2239 238° Southwest 411 473 34,000  Level Albuquerque Center
12:04AM 34.9756 -109.3372 238° Southwest 409 471 34,000  Level Albuquerque Center
12:05AM 34.9086 -109.4664 238° Southwest 405 466 34,000  Level Albuquerque Center
12:06AM 34.8519 -109.5736 237° Southwest 398 458 34,000  Level Albuquerque Center
12:07AM 34.7964 -109.6828 238° Southwest 395 455 34,000  Level Albuquerque Center
12:08AM 34.7308 -109.8097 238° Southwest 396 456 34,000  Level Albuquerque Center
12:09AM 34.6822 -109.9247 243° Southwest 398 458 34,000  Level Albuquerque Center
12:10AM 34.6319 -110.0606 246° West 395 455 34,000  Level Albuquerque Center
12:11AM 34.5817 -110.1781 243° Southwest 405 466 34,000 -295 Level Albuquerque Center
12:12AM 34.5253 -110.2842 237° Southwest 397 457 33,400 -1,033 Descending Albuquerque Center
12:13AM 34.4633 -110.4108 239° Southwest 394 453 31,900 -2,049 Descending Albuquerque Center
12:14AM 34.4081 -110.5322 241° Southwest 406 467 29,200 -2,537 Descending Albuquerque Center
12:15AM 34.3517 -110.6486 240° Southwest 403 464 26,700 -2,459 Descending Albuquerque Center
12:16AM 34.2894 -110.7633 237° Southwest 406 467 24,200 -2,459 Descending Albuquerque Center
12:17AM 34.2322 -110.8783 239° Southwest 403 464 21,700 -2,311 Descending Albuquerque Center
12:18AM 34.1789 -110.9875 239° Southwest 387 445 19,500 -1,721 Descending Albuquerque Center
12:19AM 34.1278 -111.0878 238° Southwest 364 419 18,200 -1,623 Descending Albuquerque Center
12:20AM 34.0661 -111.1686 227° Southwest 331 381 16,200 -1,770 Descending Albuquerque Center
12:21AM 34.0056 -111.2461 227° Southwest 321 369 14,600 -1,574 Descending Albuquerque Center
12:22AM 33.9469 -111.3211 227° Southwest 309 356 13,000 -1,377 Descending Albuquerque Center
12:23AM 33.8883 -111.3958 227° Southwest 306 352 11,800 -1,230 Descending Albuquerque Center
12:24AM 33.8278 -111.4514 217° Southwest 275 316 10,500 -1,525 Descending Albuquerque Center
12:25AM 33.7658 -111.5047 216° Southwest 273 314 8,700 -1,230 Descending Albuquerque Center
12:26AM 33.7050 -111.5556 215° Southwest 263 303 8,000 -344 Descending Albuquerque Center
12:27AM 33.6425 -111.6100 216° Southwest 233 268 8,000 -492 Level Albuquerque Center
12:28AM 33.5897 -111.6542 215° Southwest 231 266 7,000 -1,033 Descending Albuquerque Center
12:29AM 33.5381 -111.6967 214° Southwest 226 260 5,900 -1,033 Descending Albuquerque Center
12:30AM 33.4883 -111.7389 215° Southwest 219 252 4,900 -738 Descending Albuquerque Center
12:31AM 33.4533 -111.7878 229° Southwest 193 222 4,400 -787 Descending Albuquerque Center
12:32AM 33.4408 -111.8464 256° West 187 215 3,300 -982 Descending Albuquerque Center
12:33AM 33.4333 -111.9000 260° West 179 206 2,600 -835 Descending Phoenix TRACON
12:34AM 33.4333 -111.9500 270° West 139 160 1,700 -818 Descending Phoenix TRACON
12:37AM 33.4343 -112.0116 270° West  Level Estimated